Green Valley, Wisconsin
Current Conditions -  °F | °C
As of 9:35 PM on Saturday 24 Jan 2015 (Local Time) from KEZS Reporting Station
Overcast Overcast  
Wind Chill: 23°   Ceiling: 2000
Heat Index: 31°   Visibility: 10mi
Dew Point: 25°   Wind: 9mph
Humidity: 77%   Direction: 70°ENE
Pressure: 29.72"   Gusts: NA
Location:  44.8°N, 88.27°W
Report Text: KEZS 250335Z AUTO 07008KT 10SM OVC020 00/M04 A2972 RMK AO2 T10051041
Loading
Personal Weather Stations






























Interactive Weather Map New forecast layout! Learn more

10-Day Weather Forecast

Advertisements
Track Severe Weather on mobile